sensor_id;sensor_type;location;lat;lon;timestamp;temperature;humidity
1025;DHT22;501;48.214;11.350;2022-12-07T00:01:19;3.90;62.70
1025;DHT22;501;48.214;11.350;2022-12-07T00:03:46;3.90;62.20
1025;DHT22;501;48.214;11.350;2022-12-07T00:06:14;3.90;62.30
1025;DHT22;501;48.214;11.350;2022-12-07T00:08:39;3.90;62.30
1025;DHT22;501;48.214;11.350;2022-12-07T00:11:20;3.90;61.70
1025;DHT22;501;48.214;11.350;2022-12-07T00:13:46;3.90;61.70
1025;DHT22;501;48.214;11.350;2022-12-07T00:16:17;3.90;61.70
1025;DHT22;501;48.214;11.350;2022-12-07T00:18:44;3.90;61.70
1025;DHT22;501;48.214;11.350;2022-12-07T00:21:16;3.90;61.70
1025;DHT22;501;48.214;11.350;2022-12-07T00:23:43;3.90;61.60
1025;DHT22;501;48.214;11.350;2022-12-07T00:26:14;3.90;61.70
1025;DHT22;501;48.214;11.350;2022-12-07T00:28:51;3.90;61.70
1025;DHT22;501;48.214;11.350;2022-12-07T00:31:19;3.90;61.70
1025;DHT22;501;48.214;11.350;2022-12-07T00:33:46;3.90;61.70
1025;DHT22;501;48.214;11.350;2022-12-07T00:36:18;3.90;61.70
1025;DHT22;501;48.214;11.350;2022-12-07T00:38:44;3.90;61.70
1025;DHT22;501;48.214;11.350;2022-12-07T00:41:21;4.00;61.80
1025;DHT22;501;48.214;11.350;2022-12-07T00:43:48;3.90;61.70
1025;DHT22;501;48.214;11.350;2022-12-07T00:46:14;3.90;61.70
1025;DHT22;501;48.214;11.350;2022-12-07T00:48:44;3.90;61.70
1025;DHT22;501;48.214;11.350;2022-12-07T00:51:11;3.90;61.70
1025;DHT22;501;48.214;11.350;2022-12-07T00:53:38;4.00;61.80
1025;DHT22;501;48.214;11.350;2022-12-07T00:56:07;4.00;61.70
1025;DHT22;501;48.214;11.350;2022-12-07T00:58:33;3.90;61.50
1025;DHT22;501;48.214;11.350;2022-12-07T01:01:04;3.90;61.70
1025;DHT22;501;48.214;11.350;2022-12-07T01:03:30;3.90;61.60
1025;DHT22;501;48.214;11.350;2022-12-07T01:05:56;3.90;61.60
1025;DHT22;501;48.214;11.350;2022-12-07T01:08:24;3.90;61.70
1025;DHT22;501;48.214;11.350;2022-12-07T01:11:00;3.90;62.00
1025;DHT22;501;48.214;11.350;2022-12-07T01:13:26;3.90;62.70
1025;DHT22;501;48.214;11.350;2022-12-07T01:15:56;3.90;62.30
1025;DHT22;501;48.214;11.350;2022-12-07T01:18:22;3.90;62.40
1025;DHT22;501;48.214;11.350;2022-12-07T01:20:58;3.90;62.20
1025;DHT22;501;48.214;11.350;2022-12-07T01:23:24;3.90;62.10
1025;DHT22;501;48.214;11.350;2022-12-07T01:26:00;3.90;61.70
1025;DHT22;501;48.214;11.350;2022-12-07T01:28:27;3.90;62.30
1025;DHT22;501;48.214;11.350;2022-12-07T01:31:06;3.90;62.30
1025;DHT22;501;48.214;11.350;2022-12-07T01:33:36;3.90;62.00
1025;DHT22;501;48.214;11.350;2022-12-07T01:38:32;3.90;61.90
1025;DHT22;501;48.214;11.350;2022-12-07T01:40:59;3.90;62.20
1025;DHT22;501;48.214;11.350;2022-12-07T01:43:27;3.90;62.40
1025;DHT22;501;48.214;11.350;2022-12-07T01:45:53;3.90;62.60
1025;DHT22;501;48.214;11.350;2022-12-07T01:48:24;3.90;62.70
1025;DHT22;501;48.214;11.350;2022-12-07T01:50:52;3.90;62.70
1025;DHT22;501;48.214;11.350;2022-12-07T01:53:19;3.90;62.60
1025;DHT22;501;48.214;11.350;2022-12-07T01:55:49;3.90;62.70
1025;DHT22;501;48.214;11.350;2022-12-07T01:58:16;3.90;62.60
1025;DHT22;501;48.214;11.350;2022-12-07T02:00:42;3.90;62.50
1025;DHT22;501;48.214;11.350;2022-12-07T02:03:31;3.90;62.50
1025;DHT22;501;48.214;11.350;2022-12-07T02:05:59;3.90;62.30
1025;DHT22;501;48.214;11.350;2022-12-07T02:08:25;3.90;61.80
1025;DHT22;501;48.214;11.350;2022-12-07T02:10:51;3.90;62.00
1025;DHT22;501;48.214;11.350;2022-12-07T02:13:23;4.00;61.90
1025;DHT22;501;48.214;11.350;2022-12-07T02:21:24;4.00;62.10
1025;DHT22;501;48.214;11.350;2022-12-07T02:32:26;3.90;61.70
1025;DHT22;501;48.214;11.350;2022-12-07T02:35:06;3.90;61.70
1025;DHT22;501;48.214;11.350;2022-12-07T02:40:39;3.90;61.70
1025;DHT22;501;48.214;11.350;2022-12-07T02:43:19;3.90;61.70
1025;DHT22;501;48.214;11.350;2022-12-07T02:45:47;3.90;62.30
1025;DHT22;501;48.214;11.350;2022-12-07T02:48:16;3.90;61.70
1025;DHT22;501;48.214;11.350;2022-12-07T02:50:52;3.90;61.70
1025;DHT22;501;48.214;11.350;2022-12-07T02:53:38;3.90;61.70
1025;DHT22;501;48.214;11.350;2022-12-07T02:56:16;3.90;61.70
1025;DHT22;501;48.214;11.350;2022-12-07T03:01:50;3.90;61.70
1025;DHT22;501;48.214;11.350;2022-12-07T03:10:20;3.90;61.70
1025;DHT22;501;48.214;11.350;2022-12-07T03:13:04;3.90;61.70
1025;DHT22;501;48.214;11.350;2022-12-07T03:15:46;4.00;61.80
1025;DHT22;501;48.214;11.350;2022-12-07T03:18:18;3.90;62.20
1025;DHT22;501;48.214;11.350;2022-12-07T03:20:46;3.90;62.60
1025;DHT22;501;48.214;11.350;2022-12-07T03:23:16;3.90;62.80
1025;DHT22;501;48.214;11.350;2022-12-07T03:25:47;3.90;62.80
1025;DHT22;501;48.214;11.350;2022-12-07T03:28:16;3.90;64.20
1025;DHT22;501;48.214;11.350;2022-12-07T03:30:50;3.90;63.50
1025;DHT22;501;48.214;11.350;2022-12-07T03:33:46;3.90;63.30
1025;DHT22;501;48.214;11.350;2022-12-07T03:39:27;3.90;63.20
1025;DHT22;501;48.214;11.350;2022-12-07T03:41:55;3.90;63.10
1025;DHT22;501;48.214;11.350;2022-12-07T03:44:22;3.90;63.30
1025;DHT22;501;48.214;11.350;2022-12-07T03:47:13;3.90;63.20
1025;DHT22;501;48.214;11.350;2022-12-07T03:49:50;3.90;63.30
1025;DHT22;501;48.214;11.350;2022-12-07T03:55:30;3.90;63.80
1025;DHT22;501;48.214;11.350;2022-12-07T03:58:01;3.90;62.90
1025;DHT22;501;48.214;11.350;2022-12-07T04:00:28;3.90;63.10
1025;DHT22;501;48.214;11.350;2022-12-07T04:02:55;3.90;62.90
1025;DHT22;501;48.214;11.350;2022-12-07T04:05:20;3.90;62.70
1025;DHT22;501;48.214;11.350;2022-12-07T04:07:46;3.90;62.90
1025;DHT22;501;48.214;11.350;2022-12-07T04:10:12;3.90;63.40
1025;DHT22;501;48.214;11.350;2022-12-07T04:12:37;3.90;63.50
1025;DHT22;501;48.214;11.350;2022-12-07T04:15:04;3.90;63.30
1025;DHT22;501;48.214;11.350;2022-12-07T04:17:30;3.90;63.70
1025;DHT22;501;48.214;11.350;2022-12-07T04:19:55;3.90;64.70
1025;DHT22;501;48.214;11.350;2022-12-07T04:22:21;3.90;63.90
1025;DHT22;501;48.214;11.350;2022-12-07T04:24:47;3.80;64.10
1025;DHT22;501;48.214;11.350;2022-12-07T04:27:12;3.80;64.20
1025;DHT22;501;48.214;11.350;2022-12-07T04:29:38;3.80;64.30
1025;DHT22;501;48.214;11.350;2022-12-07T04:32:04;3.80;64.80
1025;DHT22;501;48.214;11.350;2022-12-07T04:34:29;3.80;64.60
1025;DHT22;501;48.214;11.350;2022-12-07T04:36:55;3.70;64.90
1025;DHT22;501;48.214;11.350;2022-12-07T04:39:28;3.70;65.10
1025;DHT22;501;48.214;11.350;2022-12-07T04:41:54;3.70;65.00
1025;DHT22;501;48.214;11.350;2022-12-07T04:44:27;3.70;65.90
1025;DHT22;501;48.214;11.350;2022-12-07T04:46:53;3.60;65.90
1025;DHT22;501;48.214;11.350;2022-12-07T04:49:19;3.60;66.10
1025;DHT22;501;48.214;11.350;2022-12-07T04:51:45;3.60;66.50
1025;DHT22;501;48.214;11.350;2022-12-07T04:54:11;3.60;66.70
1025;DHT22;501;48.214;11.350;2022-12-07T04:56:37;3.60;67.00
1025;DHT22;501;48.214;11.350;2022-12-07T04:59:03;3.60;67.60
1025;DHT22;501;48.214;11.350;2022-12-07T05:01:30;3.60;67.50
1025;DHT22;501;48.214;11.350;2022-12-07T05:03:55;3.60;67.70
1025;DHT22;501;48.214;11.350;2022-12-07T05:06:21;3.60;67.80
1025;DHT22;501;48.214;11.350;2022-12-07T05:08:47;3.60;68.00
1025;DHT22;501;48.214;11.350;2022-12-07T05:11:13;3.60;68.30
1025;DHT22;501;48.214;11.350;2022-12-07T05:13:57;3.60;68.10
1025;DHT22;501;48.214;11.350;2022-12-07T05:16:23;3.60;68.40
1025;DHT22;501;48.214;11.350;2022-12-07T05:18:48;3.50;67.90
1025;DHT22;501;48.214;11.350;2022-12-07T05:21:14;3.50;67.90
1025;DHT22;501;48.214;11.350;2022-12-07T05:23:40;3.50;67.70
1025;DHT22;501;48.214;11.350;2022-12-07T05:26:05;3.50;68.20
1025;DHT22;501;48.214;11.350;2022-12-07T05:28:31;3.50;68.30
1025;DHT22;501;48.214;11.350;2022-12-07T05:30:56;3.50;68.20
1025;DHT22;501;48.214;11.350;2022-12-07T05:33:22;3.40;68.20
1025;DHT22;501;48.214;11.350;2022-12-07T05:35:48;3.40;68.70
1025;DHT22;501;48.214;11.350;2022-12-07T05:38:13;3.40;68.70
1025;DHT22;501;48.214;11.350;2022-12-07T05:40:39;3.40;69.50
1025;DHT22;501;48.214;11.350;2022-12-07T05:43:04;3.40;70.30
1025;DHT22;501;48.214;11.350;2022-12-07T05:45:30;3.30;70.20
1025;DHT22;501;48.214;11.350;2022-12-07T05:47:55;3.30;71.20
1025;DHT22;501;48.214;11.350;2022-12-07T05:50:21;3.40;71.20
1025;DHT22;501;48.214;11.350;2022-12-07T05:52:47;3.40;70.20
1025;DHT22;501;48.214;11.350;2022-12-07T05:55:12;3.40;70.10
1025;DHT22;501;48.214;11.350;2022-12-07T05:57:38;3.40;70.60
1025;DHT22;501;48.214;11.350;2022-12-07T06:00:05;3.30;69.40
1025;DHT22;501;48.214;11.350;2022-12-07T06:02:30;3.30;69.40
1025;DHT22;501;48.214;11.350;2022-12-07T06:04:56;3.30;69.40
1025;DHT22;501;48.214;11.350;2022-12-07T06:07:21;3.30;69.50
1025;DHT22;501;48.214;11.350;2022-12-07T06:09:47;3.30;69.00
1025;DHT22;501;48.214;11.350;2022-12-07T06:12:13;3.20;69.40
1025;DHT22;501;48.214;11.350;2022-12-07T06:14:58;3.20;69.60
1025;DHT22;501;48.214;11.350;2022-12-07T06:17:23;3.20;69.80
1025;DHT22;501;48.214;11.350;2022-12-07T06:19:49;3.20;70.60
1025;DHT22;501;48.214;11.350;2022-12-07T06:22:15;3.20;70.50
1025;DHT22;501;48.214;11.350;2022-12-07T06:24:42;3.20;70.40
1025;DHT22;501;48.214;11.350;2022-12-07T06:27:08;3.20;70.00
1025;DHT22;501;48.214;11.350;2022-12-07T06:29:34;3.20;69.90
1025;DHT22;501;48.214;11.350;2022-12-07T06:32:03;3.20;70.10
1025;DHT22;501;48.214;11.350;2022-12-07T06:34:29;3.20;70.10
1025;DHT22;501;48.214;11.350;2022-12-07T06:36:54;3.20;70.20
1025;DHT22;501;48.214;11.350;2022-12-07T06:39:25;3.20;70.30
1025;DHT22;501;48.214;11.350;2022-12-07T06:41:51;3.20;70.30
1025;DHT22;501;48.214;11.350;2022-12-07T06:44:18;3.20;70.50
1025;DHT22;501;48.214;11.350;2022-12-07T06:46:44;3.20;70.10
1025;DHT22;501;48.214;11.350;2022-12-07T06:49:09;3.20;69.80
1025;DHT22;501;48.214;11.350;2022-12-07T06:51:35;3.20;69.40
1025;DHT22;501;48.214;11.350;2022-12-07T06:54:03;3.20;69.30
1025;DHT22;501;48.214;11.350;2022-12-07T06:56:29;3.20;69.30
1025;DHT22;501;48.214;11.350;2022-12-07T06:58:54;3.20;68.70
1025;DHT22;501;48.214;11.350;2022-12-07T07:01:20;3.20;68.90
1025;DHT22;501;48.214;11.350;2022-12-07T07:03:46;3.20;69.30
1025;DHT22;501;48.214;11.350;2022-12-07T07:06:12;3.20;68.80
1025;DHT22;501;48.214;11.350;2022-12-07T07:08:38;3.30;68.00
1025;DHT22;501;48.214;11.350;2022-12-07T07:11:05;3.20;67.20
1025;DHT22;501;48.214;11.350;2022-12-07T07:13:31;3.20;67.70
1025;DHT22;501;48.214;11.350;2022-12-07T07:15:56;3.20;68.10
1025;DHT22;501;48.214;11.350;2022-12-07T07:18:22;3.20;68.70
1025;DHT22;501;48.214;11.350;2022-12-07T07:20:48;3.20;68.90
1025;DHT22;501;48.214;11.350;2022-12-07T07:23:13;3.30;68.70
1025;DHT22;501;48.214;11.350;2022-12-07T07:25:39;3.30;68.20
1025;DHT22;501;48.214;11.350;2022-12-07T07:28:05;3.30;68.10
1025;DHT22;501;48.214;11.350;2022-12-07T07:30:31;3.30;67.60
1025;DHT22;501;48.214;11.350;2022-12-07T07:32:58;3.30;67.50
1025;DHT22;501;48.214;11.350;2022-12-07T07:35:24;3.30;67.20
1025;DHT22;501;48.214;11.350;2022-12-07T07:37:50;3.30;65.80
1025;DHT22;501;48.214;11.350;2022-12-07T07:40:16;3.30;66.20
1025;DHT22;501;48.214;11.350;2022-12-07T07:42:41;3.30;66.50
1025;DHT22;501;48.214;11.350;2022-12-07T07:45:07;3.30;66.80
1025;DHT22;501;48.214;11.350;2022-12-07T07:47:33;3.30;67.20
1025;DHT22;501;48.214;11.350;2022-12-07T07:49:59;3.30;67.30
1025;DHT22;501;48.214;11.350;2022-12-07T07:52:25;3.30;67.60
1025;DHT22;501;48.214;11.350;2022-12-07T07:54:50;3.30;67.90
1025;DHT22;501;48.214;11.350;2022-12-07T07:57:16;3.40;68.10
1025;DHT22;501;48.214;11.350;2022-12-07T07:59:42;3.40;67.50
1025;DHT22;501;48.214;11.350;2022-12-07T08:02:14;3.40;67.30
1025;DHT22;501;48.214;11.350;2022-12-07T08:04:40;3.40;66.80
1025;DHT22;501;48.214;11.350;2022-12-07T08:07:06;3.40;66.10
1025;DHT22;501;48.214;11.350;2022-12-07T08:09:32;3.40;65.90
1025;DHT22;501;48.214;11.350;2022-12-07T08:11:57;3.50;65.60
1025;DHT22;501;48.214;11.350;2022-12-07T08:14:24;3.40;65.50
1025;DHT22;501;48.214;11.350;2022-12-07T08:16:49;3.40;66.10
1025;DHT22;501;48.214;11.350;2022-12-07T08:19:15;3.50;65.70
1025;DHT22;501;48.214;11.350;2022-12-07T08:21:41;3.40;63.30
1025;DHT22;501;48.214;11.350;2022-12-07T08:24:06;3.40;62.80
1025;DHT22;501;48.214;11.350;2022-12-07T08:26:32;3.40;62.10
1025;DHT22;501;48.214;11.350;2022-12-07T08:28:57;3.40;63.90
1025;DHT22;501;48.214;11.350;2022-12-07T08:31:23;3.40;64.80
1025;DHT22;501;48.214;11.350;2022-12-07T08:33:49;3.40;63.30
1025;DHT22;501;48.214;11.350;2022-12-07T08:36:15;3.40;62.70
1025;DHT22;501;48.214;11.350;2022-12-07T08:38:41;3.50;62.80
1025;DHT22;501;48.214;11.350;2022-12-07T08:41:07;3.50;62.60
1025;DHT22;501;48.214;11.350;2022-12-07T08:43:34;3.60;62.50
1025;DHT22;501;48.214;11.350;2022-12-07T08:46:18;3.60;62.00
1025;DHT22;501;48.214;11.350;2022-12-07T08:48:57;3.70;61.50
1025;DHT22;501;48.214;11.350;2022-12-07T08:51:24;3.70;61.40
1025;DHT22;501;48.214;11.350;2022-12-07T08:53:51;3.80;60.20
1025;DHT22;501;48.214;11.350;2022-12-07T08:56:17;3.80;59.50
1025;DHT22;501;48.214;11.350;2022-12-07T08:58:43;3.80;59.60
1025;DHT22;501;48.214;11.350;2022-12-07T09:01:09;3.90;58.10
1025;DHT22;501;48.214;11.350;2022-12-07T09:03:35;3.90;57.90
1025;DHT22;501;48.214;11.350;2022-12-07T09:06:01;3.90;57.10
1025;DHT22;501;48.214;11.350;2022-12-07T09:08:31;3.90;57.40
1025;DHT22;501;48.214;11.350;2022-12-07T09:10:58;3.90;57.60
1025;DHT22;501;48.214;11.350;2022-12-07T09:13:24;3.90;58.00
1025;DHT22;501;48.214;11.350;2022-12-07T09:15:50;4.00;59.00
1025;DHT22;501;48.214;11.350;2022-12-07T09:18:15;4.00;58.20
1025;DHT22;501;48.214;11.350;2022-12-07T09:20:41;4.00;57.30
1025;DHT22;501;48.214;11.350;2022-12-07T09:23:07;4.10;57.30
1025;DHT22;501;48.214;11.350;2022-12-07T09:25:33;4.10;56.20
1025;DHT22;501;48.214;11.350;2022-12-07T09:27:59;4.10;55.90
1025;DHT22;501;48.214;11.350;2022-12-07T09:30:26;4.10;55.60
1025;DHT22;501;48.214;11.350;2022-12-07T09:32:56;4.10;55.40
1025;DHT22;501;48.214;11.350;2022-12-07T09:35:22;4.20;56.20
1025;DHT22;501;48.214;11.350;2022-12-07T09:37:48;4.20;53.60
1025;DHT22;501;48.214;11.350;2022-12-07T09:40:14;4.20;53.90
1025;DHT22;501;48.214;11.350;2022-12-07T09:42:44;4.30;53.10
1025;DHT22;501;48.214;11.350;2022-12-07T09:45:24;4.30;53.70
1025;DHT22;501;48.214;11.350;2022-12-07T09:47:50;4.30;53.30
1025;DHT22;501;48.214;11.350;2022-12-07T09:50:20;4.40;51.30
1025;DHT22;501;48.214;11.350;2022-12-07T09:52:47;4.40;51.40
1025;DHT22;501;48.214;11.350;2022-12-07T09:55:16;4.40;51.00
1025;DHT22;501;48.214;11.350;2022-12-07T09:57:43;4.40;52.10
1025;DHT22;501;48.214;11.350;2022-12-07T10:00:17;4.40;52.50
1025;DHT22;501;48.214;11.350;2022-12-07T10:02:54;4.50;52.80
1025;DHT22;501;48.214;11.350;2022-12-07T10:05:30;4.50;52.80
1025;DHT22;501;48.214;11.350;2022-12-07T10:07:58;4.50;52.70
1025;DHT22;501;48.214;11.350;2022-12-07T10:10:34;4.60;52.30
1025;DHT22;501;48.214;11.350;2022-12-07T10:13:06;4.60;50.30
1025;DHT22;501;48.214;11.350;2022-12-07T10:15:54;4.60;49.10
1025;DHT22;501;48.214;11.350;2022-12-07T10:18:28;4.60;49.00
1025;DHT22;501;48.214;11.350;2022-12-07T10:23:30;4.60;48.60
1025;DHT22;501;48.214;11.350;2022-12-07T10:25:55;4.70;48.50
1025;DHT22;501;48.214;11.350;2022-12-07T10:28:22;4.70;47.60
1025;DHT22;501;48.214;11.350;2022-12-07T10:31:02;4.70;47.50
1025;DHT22;501;48.214;11.350;2022-12-07T10:36:31;4.70;47.30
1025;DHT22;501;48.214;11.350;2022-12-07T10:39:02;4.80;47.20
1025;DHT22;501;48.214;11.350;2022-12-07T10:41:29;4.90;47.10
1025;DHT22;501;48.214;11.350;2022-12-07T10:43:56;4.90;44.80
1025;DHT22;501;48.214;11.350;2022-12-07T10:49:07;4.90;44.30
1025;DHT22;501;48.214;11.350;2022-12-07T10:51:52;5.00;44.80
1025;DHT22;501;48.214;11.350;2022-12-07T11:11:00;5.00;39.00
1025;DHT22;501;48.214;11.350;2022-12-07T11:16:08;5.00;40.60
1025;DHT22;501;48.214;11.350;2022-12-07T11:21:45;5.10;40.40
1025;DHT22;501;48.214;11.350;2022-12-07T11:24:17;5.20;40.60
1025;DHT22;501;48.214;11.350;2022-12-07T11:37:30;5.40;38.20
1025;DHT22;501;48.214;11.350;2022-12-07T11:40:20;5.40;38.90
1025;DHT22;501;48.214;11.350;2022-12-07T11:43:02;5.40;39.30
1025;DHT22;501;48.214;11.350;2022-12-07T11:45:32;5.50;40.40
1025;DHT22;501;48.214;11.350;2022-12-07T11:48:09;5.50;40.60
1025;DHT22;501;48.214;11.350;2022-12-07T11:50:52;5.60;39.30
1025;DHT22;501;48.214;11.350;2022-12-07T12:06:26;5.90;39.30
1025;DHT22;501;48.214;11.350;2022-12-07T12:09:06;5.90;38.80
1025;DHT22;501;48.214;11.350;2022-12-07T12:22:45;6.20;35.20
1025;DHT22;501;48.214;11.350;2022-12-07T12:28:04;6.20;34.60
1025;DHT22;501;48.214;11.350;2022-12-07T12:30:39;6.20;35.70
1025;DHT22;501;48.214;11.350;2022-12-07T12:33:22;6.30;37.00
1025;DHT22;501;48.214;11.350;2022-12-07T12:54:29;6.50;34.80
1025;DHT22;501;48.214;11.350;2022-12-07T12:56:58;6.90;37.50
1025;DHT22;501;48.214;11.350;2022-12-07T13:10:42;9.70;29.20
1025;DHT22;501;48.214;11.350;2022-12-07T13:26:18;8.10;31.60
1025;DHT22;501;48.214;11.350;2022-12-07T13:31:32;7.90;32.80
1025;DHT22;501;48.214;11.350;2022-12-07T13:33:59;7.80;31.90
1025;DHT22;501;48.214;11.350;2022-12-07T13:36:38;7.70;32.20
1025;DHT22;501;48.214;11.350;2022-12-07T13:39:21;7.70;32.60
1025;DHT22;501;48.214;11.350;2022-12-07T13:41:58;7.60;31.80
1025;DHT22;501;48.214;11.350;2022-12-07T13:44:28;7.40;32.50
1025;DHT22;501;48.214;11.350;2022-12-07T13:46:59;7.30;33.10
1025;DHT22;501;48.214;11.350;2022-12-07T13:49:29;7.20;33.20
1025;DHT22;501;48.214;11.350;2022-12-07T13:52:23;7.10;34.10
1025;DHT22;501;48.214;11.350;2022-12-07T13:54:55;7.10;34.60
1025;DHT22;501;48.214;11.350;2022-12-07T13:57:22;7.10;34.10
1025;DHT22;501;48.214;11.350;2022-12-07T13:59:50;7.00;33.00
1025;DHT22;501;48.214;11.350;2022-12-07T14:02:30;6.90;33.90
1025;DHT22;501;48.214;11.350;2022-12-07T14:05:15;6.80;34.60
1025;DHT22;501;48.214;11.350;2022-12-07T14:10:39;6.60;35.50
1025;DHT22;501;48.214;11.350;2022-12-07T14:13:29;6.60;35.70
1025;DHT22;501;48.214;11.350;2022-12-07T14:15:56;6.50;35.70
1025;DHT22;501;48.214;11.350;2022-12-07T14:18:40;6.40;36.10
1025;DHT22;501;48.214;11.350;2022-12-07T14:23:37;6.10;37.00
1025;DHT22;501;48.214;11.350;2022-12-07T14:26:14;6.10;37.80
1025;DHT22;501;48.214;11.350;2022-12-07T14:28:42;6.00;37.80
1025;DHT22;501;48.214;11.350;2022-12-07T14:31:16;6.00;38.10
1025;DHT22;501;48.214;11.350;2022-12-07T14:33:43;6.00;38.10
1025;DHT22;501;48.214;11.350;2022-12-07T14:36:12;6.00;38.20
1025;DHT22;501;48.214;11.350;2022-12-07T14:38:38;6.00;38.70
1025;DHT22;501;48.214;11.350;2022-12-07T14:41:06;5.90;39.00
1025;DHT22;501;48.214;11.350;2022-12-07T14:43:55;5.90;38.60
1025;DHT22;501;48.214;11.350;2022-12-07T14:46:21;5.90;38.90
1025;DHT22;501;48.214;11.350;2022-12-07T14:48:47;5.90;39.00
1025;DHT22;501;48.214;11.350;2022-12-07T14:51:12;5.90;39.10
1025;DHT22;501;48.214;11.350;2022-12-07T14:53:48;5.80;39.20
1025;DHT22;501;48.214;11.350;2022-12-07T14:56:14;5.80;39.80
1025;DHT22;501;48.214;11.350;2022-12-07T14:58:40;5.80;39.70
1025;DHT22;501;48.214;11.350;2022-12-07T15:01:06;5.70;39.80
1025;DHT22;501;48.214;11.350;2022-12-07T15:03:32;5.70;39.80
1025;DHT22;501;48.214;11.350;2022-12-07T15:05:59;5.70;39.70
1025;DHT22;501;48.214;11.350;2022-12-07T15:08:25;5.60;39.60
1025;DHT22;501;48.214;11.350;2022-12-07T15:10:51;5.60;40.20
1025;DHT22;501;48.214;11.350;2022-12-07T15:13:16;5.60;40.50
1025;DHT22;501;48.214;11.350;2022-12-07T15:16:00;5.50;40.30
1025;DHT22;501;48.214;11.350;2022-12-07T15:18:26;5.50;40.80
1025;DHT22;501;48.214;11.350;2022-12-07T15:20:52;5.50;40.60
1025;DHT22;501;48.214;11.350;2022-12-07T15:23:17;5.50;40.90
1025;DHT22;501;48.214;11.350;2022-12-07T15:25:45;5.40;41.00
1025;DHT22;501;48.214;11.350;2022-12-07T15:28:11;5.40;41.30
1025;DHT22;501;48.214;11.350;2022-12-07T15:30:38;5.40;41.10
1025;DHT22;501;48.214;11.350;2022-12-07T15:33:08;5.30;41.30
1025;DHT22;501;48.214;11.350;2022-12-07T15:35:33;5.30;41.50
1025;DHT22;501;48.214;11.350;2022-12-07T15:38:03;5.20;41.50
1025;DHT22;501;48.214;11.350;2022-12-07T15:40:29;5.20;42.00
1025;DHT22;501;48.214;11.350;2022-12-07T15:42:54;5.10;42.10
1025;DHT22;501;48.214;11.350;2022-12-07T15:45:20;5.10;42.60
1025;DHT22;501;48.214;11.350;2022-12-07T15:47:46;5.10;42.30
1025;DHT22;501;48.214;11.350;2022-12-07T15:50:14;5.10;42.30
1025;DHT22;501;48.214;11.350;2022-12-07T15:52:40;5.00;42.20
1025;DHT22;501;48.214;11.350;2022-12-07T15:55:09;5.00;42.40
1025;DHT22;501;48.214;11.350;2022-12-07T15:57:36;5.10;42.30
1025;DHT22;501;48.214;11.350;2022-12-07T16:00:07;5.00;42.30
1025;DHT22;501;48.214;11.350;2022-12-07T16:02:34;5.00;42.30
1025;DHT22;501;48.214;11.350;2022-12-07T16:04:59;5.00;42.20
1025;DHT22;501;48.214;11.350;2022-12-07T16:07:25;5.00;42.20
1025;DHT22;501;48.214;11.350;2022-12-07T16:09:54;4.90;42.30
1025;DHT22;501;48.214;11.350;2022-12-07T16:12:19;4.90;42.40
1025;DHT22;501;48.214;11.350;2022-12-07T16:14:45;4.90;42.70
1025;DHT22;501;48.214;11.350;2022-12-07T16:17:11;4.90;42.60
1025;DHT22;501;48.214;11.350;2022-12-07T16:19:37;4.90;42.60
1025;DHT22;501;48.214;11.350;2022-12-07T16:22:06;4.90;42.50
1025;DHT22;501;48.214;11.350;2022-12-07T16:24:32;4.80;42.60
1025;DHT22;501;48.214;11.350;2022-12-07T16:27:01;4.80;42.40
1025;DHT22;501;48.214;11.350;2022-12-07T16:29:26;4.80;42.30
1025;DHT22;501;48.214;11.350;2022-12-07T16:31:52;4.70;42.30
1025;DHT22;501;48.214;11.350;2022-12-07T16:34:18;4.70;42.70
1025;DHT22;501;48.214;11.350;2022-12-07T16:36:44;4.70;42.80
1025;DHT22;501;48.214;11.350;2022-12-07T16:39:09;4.60;43.10
1025;DHT22;501;48.214;11.350;2022-12-07T16:41:35;4.60;43.30
1025;DHT22;501;48.214;11.350;2022-12-07T16:44:06;4.60;43.50
1025;DHT22;501;48.214;11.350;2022-12-07T16:46:33;4.50;43.80
1025;DHT22;501;48.214;11.350;2022-12-07T16:48:58;4.50;44.30
1025;DHT22;501;48.214;11.350;2022-12-07T16:51:24;4.40;44.60
1025;DHT22;501;48.214;11.350;2022-12-07T16:53:52;4.40;44.90
1025;DHT22;501;48.214;11.350;2022-12-07T16:56:18;4.30;44.90
1025;DHT22;501;48.214;11.350;2022-12-07T16:58:44;4.30;45.20
1025;DHT22;501;48.214;11.350;2022-12-07T17:01:13;4.20;45.10
1025;DHT22;501;48.214;11.350;2022-12-07T17:03:39;4.10;45.00
1025;DHT22;501;48.214;11.350;2022-12-07T17:06:28;4.10;45.00
1025;DHT22;501;48.214;11.350;2022-12-07T17:08:56;4.00;44.90
1025;DHT22;501;48.214;11.350;2022-12-07T17:11:24;4.00;45.60
1025;DHT22;501;48.214;11.350;2022-12-07T17:13:50;3.90;45.70
1025;DHT22;501;48.214;11.350;2022-12-07T17:16:36;3.90;45.70
1025;DHT22;501;48.214;11.350;2022-12-07T17:19:06;3.90;45.60
1025;DHT22;501;48.214;11.350;2022-12-07T17:21:32;3.90;45.50
1025;DHT22;501;48.214;11.350;2022-12-07T17:23:59;3.90;45.60
1025;DHT22;501;48.214;11.350;2022-12-07T17:26:27;3.80;45.60
1025;DHT22;501;48.214;11.350;2022-12-07T17:28:53;3.80;45.70
1025;DHT22;501;48.214;11.350;2022-12-07T17:31:21;3.70;45.80
1025;DHT22;501;48.214;11.350;2022-12-07T17:33:47;3.70;46.10
1025;DHT22;501;48.214;11.350;2022-12-07T17:36:18;3.70;46.20
1025;DHT22;501;48.214;11.350;2022-12-07T17:38:45;3.60;46.10
1025;DHT22;501;48.214;11.350;2022-12-07T17:41:15;3.60;46.20
1025;DHT22;501;48.214;11.350;2022-12-07T17:44:00;3.60;46.30
1025;DHT22;501;48.214;11.350;2022-12-07T17:46:27;3.50;46.30
1025;DHT22;501;48.214;11.350;2022-12-07T17:48:56;3.50;47.20
1025;DHT22;501;48.214;11.350;2022-12-07T17:51:22;3.50;46.70
1025;DHT22;501;48.214;11.350;2022-12-07T17:54:06;3.40;46.90
1025;DHT22;501;48.214;11.350;2022-12-07T17:56:32;3.40;47.30
1025;DHT22;501;48.214;11.350;2022-12-07T17:58:58;3.30;47.30
1025;DHT22;501;48.214;11.350;2022-12-07T18:01:23;3.30;47.40
1025;DHT22;501;48.214;11.350;2022-12-07T18:03:49;3.30;47.90
1025;DHT22;501;48.214;11.350;2022-12-07T18:06:14;3.30;47.80
1025;DHT22;501;48.214;11.350;2022-12-07T18:08:40;3.30;47.80
1025;DHT22;501;48.214;11.350;2022-12-07T18:11:06;3.30;48.00
1025;DHT22;501;48.214;11.350;2022-12-07T18:13:33;3.30;47.80
1025;DHT22;501;48.214;11.350;2022-12-07T18:16:10;3.20;48.00
1025;DHT22;501;48.214;11.350;2022-12-07T18:18:37;3.20;48.20
1025;DHT22;501;48.214;11.350;2022-12-07T18:21:06;3.20;48.60
1025;DHT22;501;48.214;11.350;2022-12-07T18:23:31;3.20;48.50
1025;DHT22;501;48.214;11.350;2022-12-07T18:25:58;3.20;48.40
1025;DHT22;501;48.214;11.350;2022-12-07T18:28:24;3.10;48.30
1025;DHT22;501;48.214;11.350;2022-12-07T18:30:50;3.10;48.30
1025;DHT22;501;48.214;11.350;2022-12-07T18:33:17;3.10;48.40
1025;DHT22;501;48.214;11.350;2022-12-07T18:35:43;3.10;49.20
1025;DHT22;501;48.214;11.350;2022-12-07T18:38:09;3.10;49.00
1025;DHT22;501;48.214;11.350;2022-12-07T18:40:38;3.10;49.30
1025;DHT22;501;48.214;11.350;2022-12-07T18:43:05;3.10;49.70
1025;DHT22;501;48.214;11.350;2022-12-07T18:45:37;3.10;50.30
1025;DHT22;501;48.214;11.350;2022-12-07T18:48:03;3.10;50.40
1025;DHT22;501;48.214;11.350;2022-12-07T18:50:29;3.10;50.40
1025;DHT22;501;48.214;11.350;2022-12-07T18:53:02;3.10;49.90
1025;DHT22;501;48.214;11.350;2022-12-07T18:55:29;3.10;49.70
1025;DHT22;501;48.214;11.350;2022-12-07T18:57:56;3.10;49.90
1025;DHT22;501;48.214;11.350;2022-12-07T19:00:23;3.10;49.70
1025;DHT22;501;48.214;11.350;2022-12-07T19:02:50;3.10;49.50